sensor_id;sensor_type;location;lat;lon;timestamp;P1;durP1;ratioP1;P2;durP2;ratioP2
7997;SDS011;4044;49.814;7.828;2022-10-17T00:01:27;70.07;;;10.48;;
7997;SDS011;4044;49.814;7.828;2022-10-17T00:03:53;96.28;;;12.30;;
7997;SDS011;4044;49.814;7.828;2022-10-17T00:06:18;56.40;;;11.77;;
7997;SDS011;4044;49.814;7.828;2022-10-17T00:08:44;60.10;;;10.70;;
7997;SDS011;4044;49.814;7.828;2022-10-17T00:11:14;39.10;;;8.98;;
7997;SDS011;4044;49.814;7.828;2022-10-17T00:13:41;22.30;;;7.47;;
7997;SDS011;4044;49.814;7.828;2022-10-17T00:16:07;46.53;;;7.50;;
7997;SDS011;4044;49.814;7.828;2022-10-17T00:18:33;13.63;;;6.32;;
7997;SDS011;4044;49.814;7.828;2022-10-17T00:20:58;13.25;;;6.22;;
7997;SDS011;4044;49.814;7.828;2022-10-17T00:23:24;10.00;;;6.13;;
7997;SDS011;4044;49.814;7.828;2022-10-17T00:26:01;7.80;;;6.57;;
7997;SDS011;4044;49.814;7.828;2022-10-17T00:28:29;9.00;;;6.20;;
7997;SDS011;4044;49.814;7.828;2022-10-17T00:30:59;23.43;;;7.10;;
7997;SDS011;4044;49.814;7.828;2022-10-17T00:33:27;48.63;;;8.00;;
7997;SDS011;4044;49.814;7.828;2022-10-17T00:36:06;81.50;;;10.13;;
7997;SDS011;4044;49.814;7.828;2022-10-17T00:38:52;59.03;;;8.98;;
7997;SDS011;4044;49.814;7.828;2022-10-17T00:41:20;40.53;;;8.17;;
7997;SDS011;4044;49.814;7.828;2022-10-17T00:43:58;8.43;;;5.87;;
7997;SDS011;4044;49.814;7.828;2022-10-17T00:46:30;44.63;;;7.57;;
7997;SDS011;4044;49.814;7.828;2022-10-17T00:48:58;64.40;;;9.60;;
7997;SDS011;4044;49.814;7.828;2022-10-17T00:51:29;90.67;;;11.23;;
7997;SDS011;4044;49.814;7.828;2022-10-17T00:54:01;61.70;;;8.63;;
7997;SDS011;4044;49.814;7.828;2022-10-17T00:56:27;58.23;;;7.77;;
7997;SDS011;4044;49.814;7.828;2022-10-17T00:58:54;44.17;;;7.80;;
7997;SDS011;4044;49.814;7.828;2022-10-17T01:01:20;120.50;;;11.55;;
7997;SDS011;4044;49.814;7.828;2022-10-17T01:03:46;30.55;;;6.32;;
7997;SDS011;4044;49.814;7.828;2022-10-17T01:06:11;43.63;;;7.77;;
7997;SDS011;4044;49.814;7.828;2022-10-17T01:08:37;63.10;;;8.77;;
7997;SDS011;4044;49.814;7.828;2022-10-17T01:13:40;27.00;;;7.37;;
7997;SDS011;4044;49.814;7.828;2022-10-17T01:16:44;119.27;;;10.37;;
7997;SDS011;4044;49.814;7.828;2022-10-17T01:21:59;76.50;;;7.73;;
7997;SDS011;4044;49.814;7.828;2022-10-17T01:24:38;88.80;;;8.17;;
7997;SDS011;4044;49.814;7.828;2022-10-17T01:27:28;49.27;;;7.10;;
7997;SDS011;4044;49.814;7.828;2022-10-17T01:30:16;85.53;;;9.60;;
7997;SDS011;4044;49.814;7.828;2022-10-17T01:33:06;95.17;;;9.30;;
7997;SDS011;4044;49.814;7.828;2022-10-17T01:38:31;42.63;;;6.60;;
7997;SDS011;4044;49.814;7.828;2022-10-17T01:41:05;77.83;;;8.27;;
7997;SDS011;4044;49.814;7.828;2022-10-17T01:43:46;114.53;;;11.57;;
7997;SDS011;4044;49.814;7.828;2022-10-17T01:46:27;53.90;;;7.27;;
7997;SDS011;4044;49.814;7.828;2022-10-17T01:49:00;66.37;;;7.67;;
7997;SDS011;4044;49.814;7.828;2022-10-17T01:51:39;78.13;;;8.63;;
7997;SDS011;4044;49.814;7.828;2022-10-17T01:57:00;92.17;;;10.77;;
7997;SDS011;4044;49.814;7.828;2022-10-17T01:59:40;77.80;;;9.30;;
7997;SDS011;4044;49.814;7.828;2022-10-17T02:02:08;146.97;;;10.57;;
7997;SDS011;4044;49.814;7.828;2022-10-17T02:04:35;148.13;;;10.97;;
7997;SDS011;4044;49.814;7.828;2022-10-17T02:07:05;170.73;;;10.93;;
7997;SDS011;4044;49.814;7.828;2022-10-17T02:09:32;180.63;;;12.87;;
7997;SDS011;4044;49.814;7.828;2022-10-17T02:12:16;151.13;;;10.43;;
7997;SDS011;4044;49.814;7.828;2022-10-17T02:20:34;83.00;;;7.97;;
7997;SDS011;4044;49.814;7.828;2022-10-17T02:23:08;54.43;;;7.13;;
7997;SDS011;4044;49.814;7.828;2022-10-17T02:25:47;47.30;;;7.03;;
7997;SDS011;4044;49.814;7.828;2022-10-17T02:31:00;41.67;;;7.37;;
7997;SDS011;4044;49.814;7.828;2022-10-17T02:36:20;49.13;;;7.73;;
7997;SDS011;4044;49.814;7.828;2022-10-17T02:38:48;70.23;;;7.83;;
7997;SDS011;4044;49.814;7.828;2022-10-17T02:41:16;33.43;;;6.30;;
7997;SDS011;4044;49.814;7.828;2022-10-17T02:43:42;21.83;;;5.47;;
7997;SDS011;4044;49.814;7.828;2022-10-17T02:46:12;32.70;;;7.37;;
7997;SDS011;4044;49.814;7.828;2022-10-17T02:48:55;25.27;;;6.23;;
7997;SDS011;4044;49.814;7.828;2022-10-17T02:51:30;65.73;;;7.97;;
7997;SDS011;4044;49.814;7.828;2022-10-17T02:54:08;27.17;;;7.40;;
7997;SDS011;4044;49.814;7.828;2022-10-17T02:56:56;37.13;;;6.80;;
7997;SDS011;4044;49.814;7.828;2022-10-17T02:59:26;27.10;;;6.27;;
7997;SDS011;4044;49.814;7.828;2022-10-17T03:01:54;27.80;;;6.63;;
7997;SDS011;4044;49.814;7.828;2022-10-17T03:04:20;32.47;;;6.60;;
7997;SDS011;4044;49.814;7.828;2022-10-17T03:06:46;59.73;;;7.10;;
7997;SDS011;4044;49.814;7.828;2022-10-17T03:09:13;37.20;;;6.63;;
7997;SDS011;4044;49.814;7.828;2022-10-17T03:11:38;19.43;;;5.67;;
7997;SDS011;4044;49.814;7.828;2022-10-17T03:14:04;38.40;;;5.97;;
7997;SDS011;4044;49.814;7.828;2022-10-17T03:16:30;19.20;;;5.93;;
7997;SDS011;4044;49.814;7.828;2022-10-17T03:18:55;18.60;;;5.70;;
7997;SDS011;4044;49.814;7.828;2022-10-17T03:21:21;61.83;;;7.70;;
7997;SDS011;4044;49.814;7.828;2022-10-17T03:23:46;46.73;;;7.20;;
7997;SDS011;4044;49.814;7.828;2022-10-17T03:26:12;18.13;;;5.60;;
7997;SDS011;4044;49.814;7.828;2022-10-17T03:28:37;69.27;;;7.87;;
7997;SDS011;4044;49.814;7.828;2022-10-17T03:31:07;26.80;;;6.00;;
7997;SDS011;4044;49.814;7.828;2022-10-17T03:33:38;35.40;;;6.60;;
7997;SDS011;4044;49.814;7.828;2022-10-17T03:36:04;78.97;;;9.50;;
7997;SDS011;4044;49.814;7.828;2022-10-17T03:38:37;87.83;;;8.27;;
7997;SDS011;4044;49.814;7.828;2022-10-17T03:41:04;77.80;;;9.10;;
7997;SDS011;4044;49.814;7.828;2022-10-17T03:43:30;21.47;;;5.90;;
7997;SDS011;4044;49.814;7.828;2022-10-17T03:45:56;31.77;;;6.40;;
7997;SDS011;4044;49.814;7.828;2022-10-17T03:48:22;55.27;;;7.63;;
7997;SDS011;4044;49.814;7.828;2022-10-17T03:50:48;25.75;;;5.47;;
7997;SDS011;4044;49.814;7.828;2022-10-17T03:53:14;50.83;;;7.38;;
7997;SDS011;4044;49.814;7.828;2022-10-17T03:55:39;41.00;;;6.57;;
7997;SDS011;4044;49.814;7.828;2022-10-17T03:58:05;30.10;;;5.60;;
7997;SDS011;4044;49.814;7.828;2022-10-17T04:00:30;64.30;;;9.30;;
7997;SDS011;4044;49.814;7.828;2022-10-17T04:02:56;44.97;;;7.17;;
7997;SDS011;4044;49.814;7.828;2022-10-17T04:05:22;65.83;;;7.70;;
7997;SDS011;4044;49.814;7.828;2022-10-17T04:07:48;46.00;;;6.37;;
7997;SDS011;4044;49.814;7.828;2022-10-17T04:10:14;43.67;;;7.13;;
7997;SDS011;4044;49.814;7.828;2022-10-17T04:12:39;39.27;;;7.90;;
7997;SDS011;4044;49.814;7.828;2022-10-17T04:15:05;54.83;;;8.70;;
7997;SDS011;4044;49.814;7.828;2022-10-17T04:17:31;18.60;;;5.77;;
7997;SDS011;4044;49.814;7.828;2022-10-17T04:19:57;22.63;;;5.50;;
7997;SDS011;4044;49.814;7.828;2022-10-17T04:22:22;22.17;;;5.70;;
7997;SDS011;4044;49.814;7.828;2022-10-17T04:24:48;14.60;;;5.20;;
7997;SDS011;4044;49.814;7.828;2022-10-17T04:27:13;18.03;;;6.40;;
7997;SDS011;4044;49.814;7.828;2022-10-17T04:29:39;20.43;;;6.57;;
7997;SDS011;4044;49.814;7.828;2022-10-17T04:32:05;13.77;;;5.47;;
7997;SDS011;4044;49.814;7.828;2022-10-17T04:34:30;16.77;;;6.20;;
7997;SDS011;4044;49.814;7.828;2022-10-17T04:36:56;13.73;;;5.53;;
7997;SDS011;4044;49.814;7.828;2022-10-17T04:39:22;13.80;;;6.90;;
7997;SDS011;4044;49.814;7.828;2022-10-17T04:41:47;10.20;;;5.50;;
7997;SDS011;4044;49.814;7.828;2022-10-17T04:44:13;5.17;;;4.67;;
7997;SDS011;4044;49.814;7.828;2022-10-17T04:46:38;26.37;;;6.30;;
7997;SDS011;4044;49.814;7.828;2022-10-17T04:49:04;85.83;;;8.40;;
7997;SDS011;4044;49.814;7.828;2022-10-17T04:51:29;62.20;;;7.03;;
7997;SDS011;4044;49.814;7.828;2022-10-17T04:53:55;145.43;;;12.30;;
7997;SDS011;4044;49.814;7.828;2022-10-17T04:56:21;19.63;;;4.90;;
7997;SDS011;4044;49.814;7.828;2022-10-17T04:58:48;195.57;;;13.40;;
7997;SDS011;4044;49.814;7.828;2022-10-17T05:01:18;146.03;;;12.90;;
7997;SDS011;4044;49.814;7.828;2022-10-17T05:03:45;43.97;;;7.03;;
7997;SDS011;4044;49.814;7.828;2022-10-17T05:06:12;103.50;;;8.67;;
7997;SDS011;4044;49.814;7.828;2022-10-17T05:08:40;134.30;;;10.93;;
7997;SDS011;4044;49.814;7.828;2022-10-17T05:11:14;87.30;;;8.30;;
7997;SDS011;4044;49.814;7.828;2022-10-17T05:13:44;91.73;;;8.47;;
7997;SDS011;4044;49.814;7.828;2022-10-17T05:16:14;159.87;;;10.70;;
7997;SDS011;4044;49.814;7.828;2022-10-17T05:18:39;11.17;;;4.30;;
7997;SDS011;4044;49.814;7.828;2022-10-17T05:21:05;103.43;;;8.97;;
7997;SDS011;4044;49.814;7.828;2022-10-17T05:23:31;217.40;;;14.97;;
7997;SDS011;4044;49.814;7.828;2022-10-17T05:25:56;87.13;;;7.20;;
7997;SDS011;4044;49.814;7.828;2022-10-17T05:28:22;85.07;;;6.83;;
7997;SDS011;4044;49.814;7.828;2022-10-17T05:30:48;166.17;;;13.00;;
7997;SDS011;4044;49.814;7.828;2022-10-17T05:33:14;153.00;;;10.93;;
7997;SDS011;4044;49.814;7.828;2022-10-17T05:35:39;243.20;;;14.50;;
7997;SDS011;4044;49.814;7.828;2022-10-17T05:38:05;178.93;;;11.43;;
7997;SDS011;4044;49.814;7.828;2022-10-17T05:40:30;239.73;;;15.00;;
7997;SDS011;4044;49.814;7.828;2022-10-17T05:42:56;120.33;;;8.97;;
7997;SDS011;4044;49.814;7.828;2022-10-17T05:45:21;156.77;;;11.03;;
7997;SDS011;4044;49.814;7.828;2022-10-17T05:47:47;125.13;;;9.50;;
7997;SDS011;4044;49.814;7.828;2022-10-17T05:50:12;108.37;;;8.97;;
7997;SDS011;4044;49.814;7.828;2022-10-17T05:52:38;75.40;;;7.37;;
7997;SDS011;4044;49.814;7.828;2022-10-17T05:55:04;91.67;;;6.77;;
7997;SDS011;4044;49.814;7.828;2022-10-17T05:57:30;69.03;;;6.33;;
7997;SDS011;4044;49.814;7.828;2022-10-17T05:59:56;100.50;;;8.43;;
7997;SDS011;4044;49.814;7.828;2022-10-17T06:02:21;104.87;;;7.90;;
7997;SDS011;4044;49.814;7.828;2022-10-17T06:04:47;108.60;;;8.47;;
7997;SDS011;4044;49.814;7.828;2022-10-17T06:07:14;41.57;;;6.00;;
7997;SDS011;4044;49.814;7.828;2022-10-17T06:09:40;100.03;;;8.10;;
7997;SDS011;4044;49.814;7.828;2022-10-17T06:12:06;52.00;;;5.97;;
7997;SDS011;4044;49.814;7.828;2022-10-17T06:14:32;148.23;;;10.47;;
7997;SDS011;4044;49.814;7.828;2022-10-17T06:16:58;72.60;;;7.53;;
7997;SDS011;4044;49.814;7.828;2022-10-17T06:19:23;44.00;;;6.57;;
7997;SDS011;4044;49.814;7.828;2022-10-17T06:21:49;48.53;;;6.53;;
7997;SDS011;4044;49.814;7.828;2022-10-17T06:24:14;73.60;;;7.77;;
7997;SDS011;4044;49.814;7.828;2022-10-17T06:26:40;106.33;;;9.80;;
7997;SDS011;4044;49.814;7.828;2022-10-17T06:29:06;38.90;;;6.30;;
7997;SDS011;4044;49.814;7.828;2022-10-17T06:31:32;38.63;;;6.37;;
7997;SDS011;4044;49.814;7.828;2022-10-17T06:33:58;26.23;;;5.40;;
7997;SDS011;4044;49.814;7.828;2022-10-17T06:36:23;44.43;;;6.63;;
7997;SDS011;4044;49.814;7.828;2022-10-17T06:38:49;60.13;;;6.67;;
7997;SDS011;4044;49.814;7.828;2022-10-17T06:41:15;44.93;;;6.10;;
7997;SDS011;4044;49.814;7.828;2022-10-17T06:43:43;39.63;;;4.97;;
7997;SDS011;4044;49.814;7.828;2022-10-17T06:46:10;46.13;;;5.60;;
7997;SDS011;4044;49.814;7.828;2022-10-17T06:48:37;45.40;;;5.90;;
7997;SDS011;4044;49.814;7.828;2022-10-17T06:51:03;51.40;;;6.20;;
7997;SDS011;4044;49.814;7.828;2022-10-17T06:53:31;48.50;;;5.97;;
7997;SDS011;4044;49.814;7.828;2022-10-17T06:55:58;63.63;;;6.23;;
7997;SDS011;4044;49.814;7.828;2022-10-17T06:58:29;82.90;;;7.43;;
7997;SDS011;4044;49.814;7.828;2022-10-17T07:01:09;63.13;;;6.13;;
7997;SDS011;4044;49.814;7.828;2022-10-17T07:03:36;18.63;;;4.63;;
7997;SDS011;4044;49.814;7.828;2022-10-17T07:06:02;41.57;;;5.70;;
7997;SDS011;4044;49.814;7.828;2022-10-17T07:08:29;72.77;;;7.13;;
7997;SDS011;4044;49.814;7.828;2022-10-17T07:10:54;74.27;;;8.27;;
7997;SDS011;4044;49.814;7.828;2022-10-17T07:13:20;49.40;;;5.53;;
7997;SDS011;4044;49.814;7.828;2022-10-17T07:15:46;42.27;;;5.30;;
7997;SDS011;4044;49.814;7.828;2022-10-17T07:18:12;25.03;;;4.87;;
7997;SDS011;4044;49.814;7.828;2022-10-17T07:20:37;13.77;;;4.00;;
7997;SDS011;4044;49.814;7.828;2022-10-17T07:23:04;19.17;;;4.63;;
7997;SDS011;4044;49.814;7.828;2022-10-17T07:25:30;11.67;;;4.40;;
7997;SDS011;4044;49.814;7.828;2022-10-17T07:27:56;18.37;;;5.60;;
7997;SDS011;4044;49.814;7.828;2022-10-17T07:30:21;6.83;;;4.50;;
7997;SDS011;4044;49.814;7.828;2022-10-17T07:32:47;5.77;;;4.40;;
7997;SDS011;4044;49.814;7.828;2022-10-17T07:35:13;15.30;;;5.20;;
7997;SDS011;4044;49.814;7.828;2022-10-17T07:37:39;4.70;;;4.13;;
7997;SDS011;4044;49.814;7.828;2022-10-17T07:40:06;9.18;;;4.47;;
7997;SDS011;4044;49.814;7.828;2022-10-17T07:42:32;4.75;;;4.20;;
7997;SDS011;4044;49.814;7.828;2022-10-17T07:45:00;6.25;;;4.20;;
7997;SDS011;4044;49.814;7.828;2022-10-17T07:47:26;14.15;;;4.53;;
7997;SDS011;4044;49.814;7.828;2022-10-17T07:49:54;7.30;;;4.40;;
7997;SDS011;4044;49.814;7.828;2022-10-17T07:52:20;3.90;;;3.60;;
7997;SDS011;4044;49.814;7.828;2022-10-17T07:54:46;3.43;;;3.23;;
7997;SDS011;4044;49.814;7.828;2022-10-17T07:57:11;4.43;;;3.80;;
7997;SDS011;4044;49.814;7.828;2022-10-17T07:59:37;6.70;;;4.13;;
7997;SDS011;4044;49.814;7.828;2022-10-17T08:02:02;4.50;;;4.10;;
7997;SDS011;4044;49.814;7.828;2022-10-17T08:04:29;33.10;;;4.68;;
7997;SDS011;4044;49.814;7.828;2022-10-17T08:06:55;13.30;;;4.00;;
7997;SDS011;4044;49.814;7.828;2022-10-17T08:09:20;46.95;;;5.40;;
7997;SDS011;4044;49.814;7.828;2022-10-17T08:11:46;6.72;;;3.97;;
7997;SDS011;4044;49.814;7.828;2022-10-17T08:14:12;9.20;;;4.80;;
7997;SDS011;4044;49.814;7.828;2022-10-17T08:16:39;7.75;;;4.13;;
7997;SDS011;4044;49.814;7.828;2022-10-17T08:19:04;4.20;;;3.90;;
7997;SDS011;4044;49.814;7.828;2022-10-17T08:21:32;4.40;;;4.10;;
7997;SDS011;4044;49.814;7.828;2022-10-17T08:23:59;4.20;;;3.80;;
7997;SDS011;4044;49.814;7.828;2022-10-17T08:26:26;4.30;;;3.78;;
7997;SDS011;4044;49.814;7.828;2022-10-17T08:28:52;4.55;;;4.20;;
7997;SDS011;4044;49.814;7.828;2022-10-17T08:31:18;5.38;;;4.85;;
7997;SDS011;4044;49.814;7.828;2022-10-17T08:33:45;6.10;;;5.60;;
7997;SDS011;4044;49.814;7.828;2022-10-17T08:36:12;6.80;;;6.18;;
7997;SDS011;4044;49.814;7.828;2022-10-17T08:38:39;5.60;;;5.10;;
7997;SDS011;4044;49.814;7.828;2022-10-17T08:41:14;6.25;;;5.65;;
7997;SDS011;4044;49.814;7.828;2022-10-17T08:46:54;4.80;;;4.38;;
7997;SDS011;4044;49.814;7.828;2022-10-17T08:49:30;4.63;;;4.28;;
7997;SDS011;4044;49.814;7.828;2022-10-17T08:52:21;5.25;;;4.60;;
7997;SDS011;4044;49.814;7.828;2022-10-17T08:54:57;5.93;;;4.73;;
7997;SDS011;4044;49.814;7.828;2022-10-17T08:57:23;6.63;;;5.40;;
7997;SDS011;4044;49.814;7.828;2022-10-17T08:59:50;6.75;;;6.13;;
7997;SDS011;4044;49.814;7.828;2022-10-17T09:10:21;6.00;;;4.43;;
7997;SDS011;4044;49.814;7.828;2022-10-17T09:18:36;5.95;;;5.05;;
7997;SDS011;4044;49.814;7.828;2022-10-17T09:24:02;4.70;;;4.32;;
7997;SDS011;4044;49.814;7.828;2022-10-17T09:26:34;5.78;;;5.18;;
7997;SDS011;4044;49.814;7.828;2022-10-17T09:28:59;6.43;;;4.50;;
7997;SDS011;4044;49.814;7.828;2022-10-17T09:31:28;4.40;;;3.72;;
7997;SDS011;4044;49.814;7.828;2022-10-17T09:33:59;23.45;;;17.90;;
7997;SDS011;4044;49.814;7.828;2022-10-17T09:36:31;45.33;;;35.00;;
7997;SDS011;4044;49.814;7.828;2022-10-17T09:38:59;7.43;;;6.70;;
7997;SDS011;4044;49.814;7.828;2022-10-17T09:41:29;8.48;;;7.38;;
7997;SDS011;4044;49.814;7.828;2022-10-17T09:44:17;6.20;;;4.63;;
7997;SDS011;4044;49.814;7.828;2022-10-17T09:46:52;4.45;;;4.05;;
7997;SDS011;4044;49.814;7.828;2022-10-17T09:49:40;4.78;;;3.72;;
7997;SDS011;4044;49.814;7.828;2022-10-17T09:52:14;4.40;;;3.92;;
7997;SDS011;4044;49.814;7.828;2022-10-17T09:54:47;4.47;;;3.97;;
7997;SDS011;4044;49.814;7.828;2022-10-17T09:57:15;6.03;;;5.10;;
7997;SDS011;4044;49.814;7.828;2022-10-17T09:59:44;6.63;;;6.03;;
7997;SDS011;4044;49.814;7.828;2022-10-17T10:02:21;4.30;;;3.90;;
7997;SDS011;4044;49.814;7.828;2022-10-17T10:07:40;5.30;;;3.35;;
7997;SDS011;4044;49.814;7.828;2022-10-17T10:10:07;6.18;;;3.03;;
7997;SDS011;4044;49.814;7.828;2022-10-17T10:13:05;5.72;;;3.17;;
7997;SDS011;4044;49.814;7.828;2022-10-17T10:15:42;5.15;;;3.40;;
7997;SDS011;4044;49.814;7.828;2022-10-17T10:18:25;5.22;;;2.88;;
7997;SDS011;4044;49.814;7.828;2022-10-17T10:23:36;2.90;;;2.70;;
7997;SDS011;4044;49.814;7.828;2022-10-17T10:26:05;3.00;;;2.60;;
7997;SDS011;4044;49.814;7.828;2022-10-17T10:28:53;4.88;;;3.08;;
7997;SDS011;4044;49.814;7.828;2022-10-17T10:31:25;4.80;;;3.20;;
7997;SDS011;4044;49.814;7.828;2022-10-17T10:33:53;3.05;;;2.83;;
7997;SDS011;4044;49.814;7.828;2022-10-17T10:36:19;4.85;;;2.63;;
7997;SDS011;4044;49.814;7.828;2022-10-17T10:38:50;3.05;;;2.70;;
7997;SDS011;4044;49.814;7.828;2022-10-17T10:41:19;4.45;;;2.80;;
7997;SDS011;4044;49.814;7.828;2022-10-17T10:43:46;4.47;;;2.88;;
7997;SDS011;4044;49.814;7.828;2022-10-17T10:48:53;2.88;;;2.65;;
7997;SDS011;4044;49.814;7.828;2022-10-17T10:56:48;3.17;;;2.70;;
7997;SDS011;4044;49.814;7.828;2022-10-17T10:59:19;3.70;;;3.10;;
7997;SDS011;4044;49.814;7.828;2022-10-17T11:04:37;3.22;;;2.72;;
7997;SDS011;4044;49.814;7.828;2022-10-17T11:07:15;3.22;;;2.55;;
7997;SDS011;4044;49.814;7.828;2022-10-17T11:09:59;3.97;;;2.53;;
7997;SDS011;4044;49.814;7.828;2022-10-17T11:12:38;6.28;;;3.10;;
7997;SDS011;4044;49.814;7.828;2022-10-17T11:15:21;3.05;;;2.42;;
7997;SDS011;4044;49.814;7.828;2022-10-17T11:18:02;4.88;;;3.10;;
7997;SDS011;4044;49.814;7.828;2022-10-17T11:20:41;3.67;;;2.85;;
7997;SDS011;4044;49.814;7.828;2022-10-17T11:25:50;3.65;;;2.95;;
7997;SDS011;4044;49.814;7.828;2022-10-17T11:28:19;2.80;;;2.60;;
7997;SDS011;4044;49.814;7.828;2022-10-17T11:33:23;5.65;;;2.95;;
7997;SDS011;4044;49.814;7.828;2022-10-17T11:35:53;3.58;;;2.60;;
7997;SDS011;4044;49.814;7.828;2022-10-17T11:39:06;3.70;;;2.60;;
7997;SDS011;4044;49.814;7.828;2022-10-17T11:41:23;3.88;;;3.08;;
7997;SDS011;4044;49.814;7.828;2022-10-17T11:43:57;6.18;;;3.20;;
7997;SDS011;4044;49.814;7.828;2022-10-17T11:46:33;5.30;;;2.50;;
7997;SDS011;4044;49.814;7.828;2022-10-17T11:49:09;6.55;;;2.60;;
7997;SDS011;4044;49.814;7.828;2022-10-17T11:51:42;3.95;;;2.85;;
7997;SDS011;4044;49.814;7.828;2022-10-17T11:54:17;5.10;;;2.85;;
7997;SDS011;4044;49.814;7.828;2022-10-17T12:02:29;3.75;;;2.63;;
7997;SDS011;4044;49.814;7.828;2022-10-17T12:05:03;6.60;;;2.72;;
7997;SDS011;4044;49.814;7.828;2022-10-17T12:16:35;3.67;;;2.63;;
7997;SDS011;4044;49.814;7.828;2022-10-17T12:21:26;3.47;;;2.90;;
7997;SDS011;4044;49.814;7.828;2022-10-17T12:23:53;4.40;;;2.53;;
7997;SDS011;4044;49.814;7.828;2022-10-17T12:26:28;5.85;;;2.80;;
7997;SDS011;4044;49.814;7.828;2022-10-17T12:28:54;4.57;;;2.58;;
7997;SDS011;4044;49.814;7.828;2022-10-17T12:31:24;5.65;;;2.67;;
7997;SDS011;4044;49.814;7.828;2022-10-17T12:38:46;6.63;;;3.05;;
7997;SDS011;4044;49.814;7.828;2022-10-17T12:41:13;2.85;;;2.50;;
7997;SDS011;4044;49.814;7.828;2022-10-17T12:43:43;8.07;;;2.50;;
7997;SDS011;4044;49.814;7.828;2022-10-17T12:46:11;7.25;;;2.67;;
7997;SDS011;4044;49.814;7.828;2022-10-17T12:48:58;5.22;;;2.47;;
7997;SDS011;4044;49.814;7.828;2022-10-17T12:51:25;3.72;;;2.45;;
7997;SDS011;4044;49.814;7.828;2022-10-17T12:54:10;6.38;;;2.63;;
7997;SDS011;4044;49.814;7.828;2022-10-17T12:56:38;5.45;;;2.65;;
7997;SDS011;4044;49.814;7.828;2022-10-17T12:59:46;4.63;;;2.75;;
7997;SDS011;4044;49.814;7.828;2022-10-17T13:01:57;3.63;;;2.58;;
7997;SDS011;4044;49.814;7.828;2022-10-17T13:04:25;3.65;;;2.53;;
7997;SDS011;4044;49.814;7.828;2022-10-17T13:06:53;2.65;;;2.40;;
7997;SDS011;4044;49.814;7.828;2022-10-17T13:09:25;6.15;;;3.08;;
7997;SDS011;4044;49.814;7.828;2022-10-17T13:11:56;3.10;;;2.58;;
7997;SDS011;4044;49.814;7.828;2022-10-17T13:14:24;4.65;;;2.63;;
7997;SDS011;4044;49.814;7.828;2022-10-17T13:19:24;4.13;;;3.00;;
7997;SDS011;4044;49.814;7.828;2022-10-17T13:21:58;6.70;;;2.78;;
7997;SDS011;4044;49.814;7.828;2022-10-17T13:24:29;5.38;;;2.80;;
7997;SDS011;4044;49.814;7.828;2022-10-17T13:26:56;7.72;;;2.80;;
7997;SDS011;4044;49.814;7.828;2022-10-17T13:29:23;7.80;;;2.83;;
7997;SDS011;4044;49.814;7.828;2022-10-17T13:31:59;5.60;;;2.90;;
7997;SDS011;4044;49.814;7.828;2022-10-17T13:34:29;3.92;;;2.80;;
7997;SDS011;4044;49.814;7.828;2022-10-17T13:37:03;7.05;;;3.03;;
7997;SDS011;4044;49.814;7.828;2022-10-17T13:39:37;4.85;;;2.97;;
7997;SDS011;4044;49.814;7.828;2022-10-17T13:42:05;3.53;;;2.63;;
7997;SDS011;4044;49.814;7.828;2022-10-17T13:44:45;4.32;;;2.70;;
7997;SDS011;4044;49.814;7.828;2022-10-17T13:47:25;6.85;;;2.90;;
7997;SDS011;4044;49.814;7.828;2022-10-17T13:49:53;7.00;;;2.90;;
7997;SDS011;4044;49.814;7.828;2022-10-17T13:52:21;3.80;;;2.47;;
7997;SDS011;4044;49.814;7.828;2022-10-17T13:54:49;4.68;;;2.60;;
7997;SDS011;4044;49.814;7.828;2022-10-17T13:57:18;3.95;;;2.70;;
7997;SDS011;4044;49.814;7.828;2022-10-17T13:59:51;5.60;;;2.45;;
7997;SDS011;4044;49.814;7.828;2022-10-17T14:02:30;7.07;;;2.70;;
7997;SDS011;4044;49.814;7.828;2022-10-17T14:05:02;3.78;;;2.90;;
7997;SDS011;4044;49.814;7.828;2022-10-17T14:07:34;5.88;;;2.60;;
7997;SDS011;4044;49.814;7.828;2022-10-17T14:10:05;5.18;;;2.60;;
7997;SDS011;4044;49.814;7.828;2022-10-17T14:13:00;3.88;;;2.50;;
7997;SDS011;4044;49.814;7.828;2022-10-17T14:15:29;7.05;;;3.83;;
7997;SDS011;4044;49.814;7.828;2022-10-17T14:18:04;5.22;;;3.10;;
7997;SDS011;4044;49.814;7.828;2022-10-17T14:20:32;10.52;;;3.90;;
7997;SDS011;4044;49.814;7.828;2022-10-17T14:22:58;6.63;;;3.10;;
7997;SDS011;4044;49.814;7.828;2022-10-17T14:25:26;4.18;;;3.00;;
7997;SDS011;4044;49.814;7.828;2022-10-17T14:30:45;5.82;;;2.55;;
7997;SDS011;4044;49.814;7.828;2022-10-17T14:33:23;5.45;;;2.70;;
7997;SDS011;4044;49.814;7.828;2022-10-17T14:35:53;4.07;;;2.53;;
7997;SDS011;4044;49.814;7.828;2022-10-17T14:38:20;4.82;;;2.70;;
7997;SDS011;4044;49.814;7.828;2022-10-17T14:40:50;4.90;;;2.65;;
7997;SDS011;4044;49.814;7.828;2022-10-17T14:43:24;7.32;;;2.80;;
7997;SDS011;4044;49.814;7.828;2022-10-17T14:45:57;6.15;;;2.70;;
7997;SDS011;4044;49.814;7.828;2022-10-17T14:48:27;4.47;;;2.65;;
7997;SDS011;4044;49.814;7.828;2022-10-17T14:51:15;5.32;;;2.63;;
7997;SDS011;4044;49.814;7.828;2022-10-17T14:54:27;7.97;;;2.50;;
7997;SDS011;4044;49.814;7.828;2022-10-17T14:56:40;6.00;;;2.63;;
7997;SDS011;4044;49.814;7.828;2022-10-17T14:59:07;5.13;;;2.65;;
7997;SDS011;4044;49.814;7.828;2022-10-17T15:01:34;5.15;;;2.60;;
7997;SDS011;4044;49.814;7.828;2022-10-17T15:04:00;7.15;;;2.90;;
7997;SDS011;4044;49.814;7.828;2022-10-17T15:06:27;3.97;;;2.70;;
7997;SDS011;4044;49.814;7.828;2022-10-17T15:08:54;5.60;;;2.83;;
7997;SDS011;4044;49.814;7.828;2022-10-17T15:11:21;7.47;;;2.70;;
7997;SDS011;4044;49.814;7.828;2022-10-17T15:13:46;5.20;;;2.90;;
7997;SDS011;4044;49.814;7.828;2022-10-17T15:16:19;5.93;;;2.78;;
7997;SDS011;4044;49.814;7.828;2022-10-17T15:18:47;4.30;;;2.45;;
7997;SDS011;4044;49.814;7.828;2022-10-17T15:21:14;5.43;;;2.55;;
7997;SDS011;4044;49.814;7.828;2022-10-17T15:23:41;7.07;;;2.83;;
7997;SDS011;4044;49.814;7.828;2022-10-17T15:26:11;7.75;;;2.80;;
7997;SDS011;4044;49.814;7.828;2022-10-17T15:28:50;4.90;;;2.78;;
7997;SDS011;4044;49.814;7.828;2022-10-17T15:31:17;5.38;;;2.65;;
7997;SDS011;4044;49.814;7.828;2022-10-17T15:33:44;3.42;;;2.92;;
7997;SDS011;4044;49.814;7.828;2022-10-17T15:36:17;4.60;;;2.55;;
7997;SDS011;4044;49.814;7.828;2022-10-17T15:38:48;4.88;;;2.38;;
7997;SDS011;4044;49.814;7.828;2022-10-17T15:41:16;8.10;;;3.05;;
7997;SDS011;4044;49.814;7.828;2022-10-17T15:43:41;6.00;;;3.08;;
7997;SDS011;4044;49.814;7.828;2022-10-17T15:46:11;5.60;;;2.58;;
7997;SDS011;4044;49.814;7.828;2022-10-17T15:48:38;5.05;;;2.80;;
7997;SDS011;4044;49.814;7.828;2022-10-17T15:51:05;6.25;;;2.67;;
7997;SDS011;4044;49.814;7.828;2022-10-17T15:53:30;7.10;;;3.13;;
7997;SDS011;4044;49.814;7.828;2022-10-17T15:55:57;6.45;;;3.30;;
7997;SDS011;4044;49.814;7.828;2022-10-17T15:58:23;4.90;;;2.92;;
7997;SDS011;4044;49.814;7.828;2022-10-17T16:00:48;4.15;;;3.03;;
7997;SDS011;4044;49.814;7.828;2022-10-17T16:03:14;5.20;;;2.78;;
7997;SDS011;4044;49.814;7.828;2022-10-17T16:05:39;4.20;;;3.10;;
7997;SDS011;4044;49.814;7.828;2022-10-17T16:08:05;6.70;;;3.50;;
7997;SDS011;4044;49.814;7.828;2022-10-17T16:10:31;4.97;;;3.17;;
7997;SDS011;4044;49.814;7.828;2022-10-17T16:12:57;4.95;;;3.53;;
7997;SDS011;4044;49.814;7.828;2022-10-17T16:15:24;6.57;;;3.38;;
7997;SDS011;4044;49.814;7.828;2022-10-17T16:17:52;7.50;;;3.50;;
7997;SDS011;4044;49.814;7.828;2022-10-17T16:20:19;5.03;;;3.17;;
7997;SDS011;4044;49.814;7.828;2022-10-17T16:22:45;7.57;;;3.72;;
7997;SDS011;4044;49.814;7.828;2022-10-17T16:25:24;6.20;;;3.50;;
7997;SDS011;4044;49.814;7.828;2022-10-17T16:27:52;7.88;;;3.28;;
7997;SDS011;4044;49.814;7.828;2022-10-17T16:30:20;6.82;;;3.35;;
7997;SDS011;4044;49.814;7.828;2022-10-17T16:32:46;6.13;;;3.33;;
7997;SDS011;4044;49.814;7.828;2022-10-17T16:35:17;9.98;;;3.38;;
7997;SDS011;4044;49.814;7.828;2022-10-17T16:37:47;9.80;;;3.33;;
7997;SDS011;4044;49.814;7.828;2022-10-17T16:40:13;6.00;;;3.53;;
7997;SDS011;4044;49.814;7.828;2022-10-17T16:42:38;8.35;;;3.85;;
7997;SDS011;4044;49.814;7.828;2022-10-17T16:45:04;7.47;;;3.20;;
7997;SDS011;4044;49.814;7.828;2022-10-17T16:47:30;5.03;;;3.50;;
7997;SDS011;4044;49.814;7.828;2022-10-17T16:49:56;7.32;;;3.78;;
7997;SDS011;4044;49.814;7.828;2022-10-17T16:52:21;6.03;;;3.47;;
7997;SDS011;4044;49.814;7.828;2022-10-17T16:54:47;7.38;;;4.43;;